Time;durP1;ratioP1;P1;durP2;ratioP2;P2;SDS_P1;SDS_P2;PMS_P1;PMS_P2;Temp;Humidity;BMP_temperature;BMP_pressure;BME280_temperature;BME280_humidity;BME280_pressure;Samples;Min_cycle;Max_cycle;Signal;HPM_P1;HPM_P2
2023/09/08 00:01:56;;;;;;;0.32;0.10;;;;;;;12.46;64.99;100083.66;5041783;28;20044;-72
2023/09/08 00:04:23;;;;;;;0.10;0.10;;;;;;;12.46;64.87;100079.03;5036204;28;20110;-72
2023/09/08 00:06:51;;;;;;;0.10;0.10;;;;;;;12.40;64.49;100071.91;5036493;28;20519;-73
2023/09/08 00:09:17;;;;;;;0.10;0.10;;;;;;;12.47;64.58;100080.66;5045327;28;20451;-72
2023/09/08 00:11:43;;;;;;;0.10;0.10;;;;;;;12.45;64.39;100071.91;5057806;28;20052;-72
2023/09/08 00:14:10;;;;;;;0.10;0.10;;;;;;;12.40;64.45;100060.13;5060049;28;20070;-73
2023/09/08 00:16:37;;;;;;;0.13;0.10;;;;;;;12.45;64.91;100077.38;5063643;28;20090;-73
2023/09/08 00:19:03;;;;;;;0.10;0.10;;;;;;;12.46;64.60;100079.03;5040987;28;20041;-73
2023/09/08 00:21:29;;;;;;;0.22;0.10;;;;;;;12.51;64.39;100074.59;5045327;28;20062;-73
2023/09/08 00:23:57;;;;;;;0.10;0.10;;;;;;;12.48;63.87;100070.50;5061881;28;20102;-73
2023/09/08 00:26:24;;;;;;;0.10;0.10;;;;;;;12.49;64.29;100077.66;5062012;28;20059;-73
2023/09/08 00:28:50;;;;;;;0.10;0.10;;;;;;;12.51;64.66;100069.13;5023267;28;20624;-73
2023/09/08 00:31:16;;;;;;;0.10;0.10;;;;;;;12.50;64.17;100071.06;5061690;28;20045;-73
2023/09/08 00:33:44;;;;;;;0.10;0.10;;;;;;;12.54;64.59;100063.91;5056331;28;20059;-72
2023/09/08 00:36:10;;;;;;;0.10;0.10;;;;;;;12.48;63.69;100054.03;5045964;28;20037;-72
2023/09/08 00:38:37;;;;;;;0.10;0.10;;;;;;;12.42;63.75;100069.72;5043448;28;20048;-71
2023/09/08 00:41:04;;;;;;;0.10;0.10;;;;;;;12.39;64.00;100066.72;5044789;28;20081;-73
2023/09/08 00:43:31;;;;;;;0.10;0.10;;;;;;;12.36;64.66;100057.13;5042008;28;20080;-71
2023/09/08 00:45:58;;;;;;;0.10;0.10;;;;;;;12.40;64.61;100058.19;5044066;28;20048;-72
2023/09/08 00:48:25;;;;;;;0.10;0.10;;;;;;;12.29;64.71;100051.13;5058851;28;20049;-72
2023/09/08 00:50:52;;;;;;;0.10;0.10;;;;;;;12.31;64.29;100057.94;5065088;28;20404;-72
2023/09/08 00:53:18;;;;;;;0.10;0.10;;;;;;;12.26;64.27;100057.16;5066231;28;20423;-72
2023/09/08 00:55:45;;;;;;;0.10;0.10;;;;;;;12.23;64.68;100055.81;5046702;28;20369;-72
2023/09/08 00:58:13;;;;;;;0.10;0.10;;;;;;;12.18;64.43;100050.34;5058375;28;20343;-72
2023/09/08 01:00:38;;;;;;;;;;;;;;;12.15;64.60;100053.63;5048697;28;20094;-72
2023/09/08 01:03:05;;;;;;;0.10;0.10;;;;;;;12.17;65.17;100051.41;5063047;28;19924;-72
2023/09/08 01:05:32;;;;;;;0.10;0.10;;;;;;;12.14;65.19;100050.06;5065013;28;20470;-72
2023/09/08 01:08:00;;;;;;;0.10;0.10;;;;;;;12.16;65.35;100047.03;5052175;28;20128;-72
2023/09/08 01:10:28;;;;;;;0.70;0.10;;;;;;;12.12;65.14;100038.56;5043818;28;20075;-72
2023/09/08 01:12:54;;;;;;;0.10;0.10;;;;;;;12.00;65.39;100032.56;5044963;28;20040;-72
2023/09/08 01:15:21;;;;;;;0.10;0.10;;;;;;;11.93;65.51;100019.13;5062894;28;20576;-71
2023/09/08 01:17:48;;;;;;;0.10;0.10;;;;;;;12.09;65.17;100047.31;5046946;28;20077;-71
2023/09/08 01:20:21;;;;;;;0.10;0.10;;;;;;;12.10;65.35;100035.28;5061879;28;20044;-72
2023/09/08 01:23:18;;;;;;;0.10;0.10;;;;;;;12.08;65.39;100042.16;5065493;28;20118;-71
2023/09/08 01:25:50;;;;;;;0.10;0.10;;;;;;;12.07;65.22;100048.72;5066812;28;20056;-71
2023/09/08 01:28:18;;;;;;;0.10;0.10;;;;;;;12.02;65.49;100044.91;5064376;28;20159;-72
2023/09/08 01:30:47;;;;;;;0.10;0.10;;;;;;;12.01;66.03;100032.28;5054345;28;20048;-73
2023/09/08 01:33:13;;;;;;;0.00;0.00;;;;;;;12.04;65.92;100039.97;5028504;28;20343;-73
2023/09/08 01:35:40;;;;;;;0.10;0.10;;;;;;;12.00;65.43;100047.06;5053199;28;20055;-71
2023/09/08 01:38:07;;;;;;;0.10;0.10;;;;;;;11.98;66.13;100037.50;5051863;28;20497;-70
2023/09/08 01:40:33;;;;;;;0.90;0.10;;;;;;;11.96;66.05;100026.00;5060859;28;20062;-71
2023/09/08 01:43:01;;;;;;;0.10;0.10;;;;;;;12.00;66.29;100035.28;5063719;28;20110;-71
2023/09/08 01:45:27;;;;;;;0.10;0.10;;;;;;;12.03;66.25;100032.00;5061803;28;20086;-72
2023/09/08 01:47:53;;;;;;;0.10;0.10;;;;;;;12.00;65.77;100030.59;5063785;28;20102;-71
2023/09/08 01:50:22;;;;;;;0.10;0.10;;;;;;;11.96;65.90;100020.50;5055721;28;20044;-71
2023/09/08 01:52:48;;;;;;;;;;;;;;;11.94;66.53;100026.25;5044391;28;20053;-73
2023/09/08 01:55:16;;;;;;;0.00;0.00;;;;;;;11.88;66.07;100009.00;5048366;28;19934;-73
2023/09/08 01:57:42;;;;;;;0.10;0.10;;;;;;;11.95;65.57;100018.88;5061788;28;20526;-73
2023/09/08 02:00:11;;;;;;;0.10;0.10;;;;;;;11.88;65.75;100017.22;5066799;28;20075;-72
2023/09/08 02:02:41;;;;;;;0.10;0.10;;;;;;;11.89;66.33;100021.59;5030864;28;20045;-73
2023/09/08 02:05:08;;;;;;;0.22;0.10;;;;;;;11.80;66.10;100011.50;5051659;28;20048;-71
2023/09/08 02:07:34;;;;;;;0.10;0.10;;;;;;;11.76;66.70;100013.97;5042347;28;20060;-71
2023/09/08 02:10:01;;;;;;;0.00;0.00;;;;;;;11.71;66.92;100006.59;5046633;28;20052;-72
2023/09/08 02:12:27;;;;;;;0.10;0.10;;;;;;;11.62;67.91;100017.28;5039357;28;20060;-72
2023/09/08 02:14:55;;;;;;;0.10;0.10;;;;;;;11.51;68.91;100009.34;5052678;28;20766;-72
2023/09/08 02:17:23;;;;;;;0.10;0.10;;;;;;;11.54;69.52;100019.75;5059519;28;20053;-72
2023/09/08 02:19:49;;;;;;;0.00;0.00;;;;;;;11.54;69.83;100001.41;5027252;28;20059;-74
2023/09/08 02:22:16;;;;;;;0.10;0.10;;;;;;;11.57;70.25;100006.34;5044441;28;20102;-73
2023/09/08 02:24:42;;;;;;;0.10;0.10;;;;;;;11.47;71.06;99987.19;5048812;28;20425;-72
2023/09/08 02:27:09;;;;;;;0.00;0.00;;;;;;;11.41;71.81;100004.72;5028931;28;20047;-72
2023/09/08 02:29:36;;;;;;;0.10;0.10;;;;;;;11.32;72.08;99993.50;5044624;28;20082;-72
2023/09/08 02:32:03;;;;;;;0.10;0.10;;;;;;;11.28;72.96;99997.91;5010149;28;20045;-73
2023/09/08 02:34:36;;;;;;;0.10;0.10;;;;;;;11.25;73.02;99977.38;5061541;28;20102;-72
2023/09/08 02:37:04;;;;;;;0.10;0.10;;;;;;;11.31;73.16;99981.72;5046726;28;20049;-71
2023/09/08 02:39:32;;;;;;;0.00;0.00;;;;;;;11.40;73.19;99981.19;5061849;28;20048;-72
2023/09/08 02:41:59;;;;;;;0.10;0.10;;;;;;;11.45;73.09;99972.94;5051045;28;20044;-71
2023/09/08 02:44:29;;;;;;;0.10;0.10;;;;;;;11.44;73.41;99965.84;5028080;28;20057;-72
2023/09/08 02:46:55;;;;;;;0.10;0.10;;;;;;;11.43;72.75;99973.25;5048661;28;20049;-73
2023/09/08 02:49:22;;;;;;;0.10;0.10;;;;;;;11.43;72.49;99964.19;5042578;28;20052;-72
2023/09/08 02:51:50;;;;;;;0.00;0.00;;;;;;;11.33;72.29;99954.91;5046390;28;20088;-72
2023/09/08 02:54:16;;;;;;;0.10;0.10;;;;;;;11.37;72.47;99959.84;5025613;28;20049;-73
2023/09/08 02:56:42;;;;;;;0.10;0.10;;;;;;;11.38;72.54;99967.75;5030246;28;20037;-73
2023/09/08 02:59:08;;;;;;;0.10;0.10;;;;;;;11.39;72.92;99963.91;5049316;28;20068;-72
2023/09/08 03:01:35;;;;;;;0.10;0.10;;;;;;;11.39;72.67;99963.91;5045959;28;20511;-73
2023/09/08 03:04:03;;;;;;;0.10;0.10;;;;;;;11.34;73.36;99964.78;5038982;28;20048;-72
2023/09/08 03:06:31;;;;;;;0.10;0.10;;;;;;;11.42;73.10;99960.66;5059136;28;20052;-71
2023/09/08 03:09:00;;;;;;;0.10;0.10;;;;;;;11.49;72.91;99974.06;5059211;28;20147;-71
2023/09/08 03:11:26;;;;;;;0.10;0.10;;;;;;;11.49;73.07;99963.91;5053139;28;20049;-72
2023/09/08 03:13:52;;;;;;;0.10;0.10;;;;;;;11.55;72.84;99961.16;5041857;28;20073;-72
2023/09/08 03:16:18;;;;;;;0.10;0.10;;;;;;;11.60;72.43;99964.69;5044774;28;20059;-72
2023/09/08 03:18:45;;;;;;;0.00;0.00;;;;;;;11.60;72.12;99961.97;5042927;28;20051;-71
2023/09/08 03:21:14;;;;;;;0.10;0.10;;;;;;;11.68;71.52;99960.56;5045033;28;20127;-72
2023/09/08 03:23:42;;;;;;;0.10;0.10;;;;;;;11.54;71.63;99941.19;5046232;28;20214;-71
2023/09/08 03:26:10;;;;;;;0.10;0.10;;;;;;;11.71;71.98;99960.03;5045499;28;20683;-72
2023/09/08 03:28:38;;;;;;;0.00;0.00;;;;;;;11.71;71.81;99953.72;5042383;28;20469;-71
2023/09/08 03:31:06;;;;;;;0.10;0.10;;;;;;;11.46;71.55;99920.66;5036222;28;20144;-71
2023/09/08 03:33:34;;;;;;;0.10;0.10;;;;;;;11.65;71.64;99941.16;5025756;28;20052;-71
2023/09/08 03:36:01;;;;;;;0.10;0.10;;;;;;;11.62;71.80;99940.59;5041047;28;20055;-72
2023/09/08 03:38:29;;;;;;;0.10;0.10;;;;;;;11.65;71.32;99941.97;5030998;28;20049;-71
2023/09/08 03:40:55;;;;;;;0.10;0.10;;;;;;;11.67;71.14;99947.97;5043651;28;20049;-71
2023/09/08 03:43:23;;;;;;;0.10;0.10;;;;;;;11.64;71.36;99940.31;5045194;28;20102;-70
2023/09/08 03:45:49;;;;;;;0.10;0.10;;;;;;;11.52;71.36;99916.00;5061066;28;20079;-70
2023/09/08 03:48:15;;;;;;;0.10;0.10;;;;;;;11.77;70.97;99937.00;5048375;28;20041;-71
2023/09/08 03:50:46;;;;;;;0.10;0.10;;;;;;;11.85;70.66;99932.03;5043781;28;20072;-71
2023/09/08 03:53:12;;;;;;;0.10;0.10;;;;;;;11.86;70.25;99930.94;5049716;28;20071;-72
2023/09/08 03:55:39;;;;;;;0.10;0.10;;;;;;;12.00;70.41;99931.16;5056675;28;20135;-71
2023/09/08 03:58:05;;;;;;;0.10;0.10;;;;;;;12.15;70.14;99930.28;5059337;28;20040;-71
2023/09/08 04:00:33;;;;;;;0.10;0.10;;;;;;;12.27;69.41;99933.50;5041526;28;20053;-71
2023/09/08 04:02:59;;;;;;;0.10;0.10;;;;;;;12.22;68.92;99928.06;5026012;28;20068;-72
2023/09/08 04:05:26;;;;;;;0.10;0.10;;;;;;;11.98;69.41;99925.16;5048239;28;20430;-71
2023/09/08 04:07:52;;;;;;;0.10;0.10;;;;;;;11.86;69.69;99928.19;5051861;28;20041;-71
2023/09/08 04:10:18;;;;;;;0.10;0.10;;;;;;;11.84;69.51;99925.75;5061542;28;20128;-71
2023/09/08 04:12:45;;;;;;;0.10;0.10;;;;;;;11.98;69.76;99927.88;5049285;28;20048;-71
2023/09/08 04:15:12;;;;;;;0.10;0.10;;;;;;;12.18;68.97;99929.75;5046157;28;20083;-71
2023/09/08 04:17:40;;;;;;;0.10;0.10;;;;;;;12.35;68.61;99934.84;5042730;28;20041;-71
2023/09/08 04:20:08;;;;;;;0.10;0.10;;;;;;;12.39;67.51;99927.66;5059374;28;20045;-71
2023/09/08 04:22:35;;;;;;;0.10;0.10;;;;;;;12.46;67.37;99928.19;5045763;28;20571;-71
2023/09/08 04:25:02;;;;;;;0.10;0.10;;;;;;;12.55;67.19;99922.91;5045100;28;20049;-71
2023/09/08 04:27:33;;;;;;;0.20;0.20;;;;;;;12.70;65.80;99912.94;5045061;28;20056;-71
2023/09/08 04:30:00;;;;;;;0.10;0.10;;;;;;;12.66;65.87;99931.88;5046499;28;20053;-72
2023/09/08 04:32:26;;;;;;;0.20;0.20;;;;;;;12.68;65.04;99920.63;5045883;28;20055;-71
2023/09/08 04:34:54;;;;;;;0.20;0.20;;;;;;;12.71;64.53;99915.38;5053707;28;20057;-72
2023/09/08 04:37:21;;;;;;;0.13;0.13;;;;;;;12.57;64.98;99904.25;5030150;28;20102;-71
2023/09/08 04:39:47;;;;;;;0.10;0.10;;;;;;;12.58;65.14;99910.56;5050722;28;20175;-72
2023/09/08 04:42:13;;;;;;;0.10;0.10;;;;;;;12.61;65.23;99913.53;5047017;28;20472;-72
2023/09/08 04:44:40;;;;;;;;;;;;;;;12.54;64.52;99910.31;5046312;28;20049;-71
2023/09/08 04:47:08;;;;;;;0.13;0.13;;;;;;;12.43;64.57;99912.31;5047909;28;19933;-71
2023/09/08 04:49:34;;;;;;;0.10;0.10;;;;;;;12.42;65.17;99907.09;5043339;28;20053;-71
2023/09/08 04:52:02;;;;;;;0.20;0.20;;;;;;;12.46;64.93;99911.75;5047840;28;20352;-72
2023/09/08 04:54:31;;;;;;;0.10;0.10;;;;;;;12.57;65.31;99904.25;5064756;28;20040;-72
2023/09/08 04:56:58;;;;;;;0.10;0.10;;;;;;;12.62;63.59;99911.63;5045696;28;20522;-72
2023/09/08 04:59:24;;;;;;;0.10;0.10;;;;;;;12.36;64.31;99883.56;5044537;28;20423;-72
2023/09/08 05:01:53;;;;;;;0.10;0.10;;;;;;;12.42;64.48;99898.88;5058239;28;20048;-73
2023/09/08 05:04:21;;;;;;;0.10;0.10;;;;;;;12.45;64.49;99887.34;5028064;28;20037;-72
2023/09/08 05:06:47;;;;;;;0.10;0.10;;;;;;;12.52;63.97;99901.56;5063038;28;20341;-74
2023/09/08 05:09:20;;;;;;;0.10;0.10;;;;;;;12.60;64.10;99891.91;5041125;28;20048;-73
2023/09/08 05:11:47;;;;;;;0.20;0.20;;;;;;;12.67;64.23;99897.88;5049867;28;20347;-73
2023/09/08 05:14:13;;;;;;;0.20;0.20;;;;;;;12.79;63.37;99897.47;5046753;28;20048;-73
2023/09/08 05:16:46;;;;;;;0.10;0.10;;;;;;;12.74;62.89;99894.78;5034377;28;20053;-73
2023/09/08 05:19:14;;;;;;;0.10;0.10;;;;;;;12.58;62.87;99891.38;5060154;28;20047;-73
2023/09/08 05:21:43;;;;;;;0.20;0.20;;;;;;;12.63;62.92;99878.41;5035918;28;20041;-73
2023/09/08 05:24:10;;;;;;;0.10;0.10;;;;;;;12.87;62.62;99874.09;5047114;28;20079;-73
2023/09/08 05:26:41;;;;;;;0.20;0.20;;;;;;;12.99;61.82;99871.00;5052556;28;20051;-74
2023/09/08 05:29:07;;;;;;;0.20;0.20;;;;;;;12.92;61.71;99860.34;5065107;28;20052;-73
2023/09/08 05:31:33;;;;;;;0.10;0.10;;;;;;;12.84;61.80;99871.94;5033583;28;20041;-72
2023/09/08 05:34:00;;;;;;;0.10;0.10;;;;;;;12.82;61.53;99864.00;5032423;28;20132;-72
2023/09/08 05:36:29;;;;;;;0.20;0.20;;;;;;;12.72;61.29;99856.69;5000913;28;20057;-72
2023/09/08 05:38:55;;;;;;;0.20;0.20;;;;;;;12.84;60.59;99852.72;5039828;28;20459;-72
2023/09/08 05:41:22;;;;;;;0.10;0.10;;;;;;;13.07;60.63;99842.91;5031352;28;20631;-72
2023/09/08 05:43:49;;;;;;;0.30;0.30;;;;;;;13.27;59.90;99855.59;5022229;28;20071;-72
2023/09/08 05:46:18;;;;;;;0.20;0.20;;;;;;;13.47;58.98;99853.75;5057451;28;20507;-72
2023/09/08 05:48:44;;;;;;;0.20;0.20;;;;;;;13.52;58.65;99848.22;5061589;28;20059;-72
2023/09/08 05:51:10;;;;;;;0.10;0.10;;;;;;;13.36;58.65;99849.47;5039182;28;20041;-73
2023/09/08 05:53:39;;;;;;;0.20;0.20;;;;;;;13.10;59.17;99839.56;5061982;28;20044;-72
2023/09/08 05:56:06;;;;;;;0.20;0.20;;;;;;;12.93;59.70;99840.03;5055242;28;20064;-72
2023/09/08 05:58:33;;;;;;;0.10;0.10;;;;;;;12.78;60.09;99840.97;5021278;28;20506;-70
2023/09/08 06:01:02;;;;;;;0.20;0.20;;;;;;;12.76;60.45;99843.19;5034434;28;20075;-71
2023/09/08 06:03:29;;;;;;;0.20;0.20;;;;;;;12.84;59.49;99828.88;5060309;28;20040;-71
2023/09/08 06:05:56;;;;;;;0.25;0.20;;;;;;;13.12;59.27;99826.41;5069458;28;20067;-71
2023/09/08 06:08:23;;;;;;;0.20;0.20;;;;;;;13.49;58.45;99821.31;5064672;28;20044;-71
2023/09/08 06:10:50;;;;;;;0.20;0.20;;;;;;;13.81;57.69;99813.50;5049559;28;20060;-73
2023/09/08 06:13:16;;;;;;;0.30;0.30;;;;;;;14.18;56.23;99823.66;5043501;28;20140;-73
2023/09/08 06:15:43;;;;;;;0.30;0.30;;;;;;;14.35;55.16;99804.97;5052954;28;20048;-74
2023/09/08 06:18:12;;;;;;;;;;;;;;;14.37;54.99;99811.81;5035965;28;20296;-72
2023/09/08 06:20:44;;;;;;;0.30;0.30;;;;;;;14.36;54.84;99790.94;5041238;28;19924;-72
2023/09/08 06:23:11;;;;;;;0.25;0.25;;;;;;;15.10;53.28;99810.59;5050181;28;20051;-73
2023/09/08 06:25:37;;;;;;;0.20;0.20;;;;;;;15.10;52.82;99816.91;5066558;28;20051;-71
2023/09/08 06:28:04;;;;;;;0.20;0.20;;;;;;;14.85;52.99;99799.75;5060520;28;20053;-72
2023/09/08 06:30:31;;;;;;;0.30;0.30;;;;;;;14.53;53.27;99817.06;5060431;28;20052;-72
2023/09/08 06:32:57;;;;;;;0.20;0.20;;;;;;;14.33;53.34;99797.84;5059814;28;20147;-73
2023/09/08 06:35:26;;;;;;;0.23;0.23;;;;;;;14.36;53.11;99807.44;5051543;28;20143;-72
2023/09/08 06:37:52;;;;;;;0.25;0.25;;;;;;;14.50;53.31;99806.69;5067064;28;20345;-73
2023/09/08 06:40:18;;;;;;;0.20;0.20;;;;;;;14.59;52.34;99794.66;5064818;28;20048;-72
2023/09/08 06:42:46;;;;;;;0.20;0.20;;;;;;;14.53;52.41;99793.13;5046210;28;20091;-73
2023/09/08 06:45:25;;;;;;;0.20;0.20;;;;;;;14.17;53.69;99788.22;5029415;28;20041;-74
2023/09/08 06:47:54;;;;;;;0.20;0.20;;;;;;;14.00;55.31;99788.75;5033713;28;20041;-74
2023/09/08 06:50:21;;;;;;;0.25;0.25;;;;;;;14.13;55.82;99782.50;5055126;28;20473;-74
2023/09/08 06:52:49;;;;;;;0.20;0.20;;;;;;;14.48;54.07;99762.16;5036505;28;20048;-72
2023/09/08 06:55:16;;;;;;;0.20;0.20;;;;;;;14.65;53.40;99767.06;5045505;28;20052;-72
2023/09/08 06:57:44;;;;;;;0.20;0.20;;;;;;;14.56;53.44;99754.00;5012128;28;20508;-73
2023/09/08 07:00:12;;;;;;;0.20;0.20;;;;;;;14.43;53.05;99754.78;5030843;28;20515;-73
2023/09/08 07:02:39;;;;;;;0.30;0.30;;;;;;;14.36;52.29;99746.94;5056344;28;20049;-73
2023/09/08 07:05:08;;;;;;;0.28;0.28;;;;;;;14.45;52.42;99752.56;5059818;28;20051;-72
2023/09/08 07:07:36;;;;;;;0.30;0.30;;;;;;;15.06;51.51;99762.75;5055059;28;20144;-71
2023/09/08 07:10:05;;;;;;;0.30;0.30;;;;;;;15.45;49.83;99748.44;5036367;28;20071;-72
2023/09/08 07:12:31;;;;;;;0.20;0.20;;;;;;;15.54;49.16;99742.19;5052361;28;20044;-70
2023/09/08 07:14:59;;;;;;;0.30;0.30;;;;;;;15.48;48.72;99751.72;5057222;28;20585;-73
2023/09/08 07:17:27;;;;;;;0.30;0.30;;;;;;;15.43;49.21;99744.38;5026917;28;20055;-72
2023/09/08 07:19:54;;;;;;;0.30;0.30;;;;;;;15.84;48.34;99743.44;5051232;28;20538;-73
2023/09/08 07:22:21;;;;;;;0.30;0.30;;;;;;;16.20;47.36;99747.28;5050626;28;20040;-72
2023/09/08 07:24:48;;;;;;;0.20;0.20;;;;;;;16.59;46.38;99740.22;5029114;28;20044;-73
2023/09/08 07:27:19;;;;;;;0.30;0.30;;;;;;;16.87;46.07;99731.75;5039418;28;20463;-73
2023/09/08 07:29:47;;;;;;;0.30;0.30;;;;;;;17.17;45.16;99725.69;5058262;28;20040;-73
2023/09/08 07:32:14;;;;;;;0.30;0.30;;;;;;;17.20;44.34;99730.56;5044984;28;20040;-73
2023/09/08 07:34:40;;;;;;;0.30;0.30;;;;;;;17.20;44.33;99733.34;5037838;28;20511;-73
2023/09/08 07:37:06;;;;;;;0.30;0.30;;;;;;;17.27;43.75;99725.41;5054805;28;20631;-74
2023/09/08 07:39:33;;;;;;;0.30;0.30;;;;;;;16.95;44.55;99732.09;5055947;28;20531;-73
2023/09/08 07:41:59;;;;;;;0.40;0.40;;;;;;;17.35;44.43;99723.78;5051790;28;20126;-73
2023/09/08 07:44:28;;;;;;;0.40;0.40;;;;;;;17.92;42.39;99722.00;5065272;28;20048;-73
2023/09/08 07:46:56;;;;;;;0.30;0.30;;;;;;;17.52;43.41;99724.94;5062118;28;20044;-73
2023/09/08 07:49:23;;;;;;;0.40;0.40;;;;;;;17.16;43.81;99718.53;5050379;28;20911;-73
2023/09/08 07:51:49;;;;;;;0.30;0.30;;;;;;;16.72;44.47;99708.13;5045975;28;20123;-74
2023/09/08 07:54:16;;;;;;;0.40;0.40;;;;;;;16.59;45.12;99717.31;5058926;28;20040;-74
2023/09/08 07:56:42;;;;;;;0.30;0.30;;;;;;;16.48;45.50;99710.47;5061243;28;20135;-73
2023/09/08 07:59:08;;;;;;;0.30;0.30;;;;;;;16.59;45.59;99714.56;5055920;28;20084;-73
2023/09/08 08:01:36;;;;;;;0.40;0.40;;;;;;;16.71;45.02;99705.72;5055015;28;20048;-74
2023/09/08 08:04:03;;;;;;;0.30;0.30;;;;;;;16.86;44.75;99705.28;5067799;28;20056;-72
2023/09/08 08:06:29;;;;;;;0.30;0.30;;;;;;;16.80;44.34;99691.94;5066037;28;20135;-73
2023/09/08 08:08:56;;;;;;;0.30;0.30;;;;;;;16.50;44.96;99695.22;5068671;28;20147;-73
2023/09/08 08:11:23;;;;;;;0.28;0.28;;;;;;;16.30;45.66;99688.28;5068830;28;20595;-73
2023/09/08 08:13:50;;;;;;;0.30;0.30;;;;;;;16.35;45.28;99684.59;5054272;28;20052;-73
2023/09/08 08:16:20;;;;;;;0.50;0.50;;;;;;;16.92;44.28;99683.03;5057416;28;20139;-73
2023/09/08 08:18:47;;;;;;;0.30;0.30;;;;;;;18.03;42.51;99672.75;5066343;28;20052;-73
2023/09/08 08:21:14;;;;;;;0.30;0.30;;;;;;;18.08;41.67;99672.59;5068301;28;20081;-72
2023/09/08 08:23:40;;;;;;;0.30;0.30;;;;;;;17.39;42.64;99652.91;5041605;28;20057;-73
2023/09/08 08:26:06;;;;;;;0.30;0.30;;;;;;;16.67;43.77;99650.31;5058185;28;20525;-73
2023/09/08 08:28:35;;;;;;;0.30;0.30;;;;;;;16.15;45.15;99671.00;5040764;28;20167;-73
2023/09/08 08:31:02;;;;;;;0.30;0.30;;;;;;;15.78;46.03;99661.19;5062796;28;20037;-72
2023/09/08 08:33:29;;;;;;;0.30;0.30;;;;;;;15.49;46.69;99643.13;5062056;28;20040;-73
2023/09/08 08:35:57;;;;;;;0.30;0.30;;;;;;;15.39;47.10;99647.75;5061172;28;20098;-72
2023/09/08 08:38:24;;;;;;;0.20;0.20;;;;;;;15.31;47.24;99640.22;5039184;28;20050;-72
2023/09/08 08:40:50;;;;;;;0.30;0.30;;;;;;;15.33;47.88;99649.00;5057789;28;20060;-73
2023/09/08 08:43:17;;;;;;;0.30;0.30;;;;;;;15.31;48.13;99643.00;5053751;28;20419;-73
2023/09/08 08:45:44;;;;;;;0.20;0.20;;;;;;;15.50;47.40;99651.06;5053270;28;20420;-72
2023/09/08 08:48:13;;;;;;;0.30;0.30;;;;;;;15.82;47.05;99651.16;5059764;28;20510;-73
2023/09/08 08:50:42;;;;;;;0.30;0.30;;;;;;;16.09;46.69;99641.16;5068251;28;20064;-72
2023/09/08 08:53:12;;;;;;;0.20;0.20;;;;;;;16.15;46.54;99626.88;5060622;28;20048;-73
2023/09/08 08:55:38;;;;;;;0.30;0.30;;;;;;;15.96;46.58;99629.03;5060847;28;20147;-72
2023/09/08 08:58:05;;;;;;;0.30;0.30;;;;;;;15.77;47.21;99615.47;5059970;28;20124;-73
2023/09/08 09:00:35;;;;;;;0.40;0.40;;;;;;;15.95;47.06;99622.75;5056888;28;20049;-72
2023/09/08 09:03:04;;;;;;;0.30;0.30;;;;;;;16.09;46.86;99619.88;5065927;28;20101;-73
2023/09/08 09:05:31;;;;;;;0.20;0.20;;;;;;;15.88;46.91;99580.97;5052126;28;20539;-73
2023/09/08 09:07:58;;;;;;;0.30;0.30;;;;;;;15.73;47.74;99598.72;5019763;28;20064;-73
2023/09/08 09:10:26;;;;;;;0.20;0.20;;;;;;;15.73;47.57;99607.00;5054947;28;20054;-72
2023/09/08 09:12:52;;;;;;;0.32;0.32;;;;;;;15.82;47.76;99607.06;5047352;28;20496;-72
2023/09/08 09:15:28;;;;;;;0.28;0.28;;;;;;;15.81;47.83;99583.38;5048102;28;20534;-74
2023/09/08 09:18:04;;;;;;;0.30;0.30;;;;;;;15.76;47.92;99606.38;5046282;28;20048;-73
2023/09/08 09:20:30;;;;;;;0.30;0.30;;;;;;;16.01;47.87;99596.66;5052440;28;20075;-73
2023/09/08 09:22:56;;;;;;;0.40;0.40;;;;;;;16.39;47.15;99598.13;5055425;28;20045;-73
2023/09/08 09:25:24;;;;;;;0.30;0.30;;;;;;;16.64;47.16;99587.50;5034853;28;20041;-73
2023/09/08 09:27:54;;;;;;;0.32;0.32;;;;;;;16.84;46.38;99586.03;5064842;28;20063;-73
2023/09/08 09:30:21;;;;;;;0.40;0.40;;;;;;;16.94;46.43;99584.94;5067715;28;20041;-73
2023/09/08 09:32:49;;;;;;;0.30;0.30;;;;;;;16.77;46.44;99594.00;5059206;28;20048;-73
2023/09/08 09:35:16;;;;;;;0.30;0.30;;;;;;;16.45;47.78;99585.78;5061929;28;20059;-73
2023/09/08 09:37:43;;;;;;;0.20;0.20;;;;;;;16.20;48.13;99570.78;5060526;28;20083;-73
2023/09/08 09:40:11;;;;;;;0.20;0.20;;;;;;;16.05;48.31;99579.47;5065842;28;20132;-72
2023/09/08 09:42:40;;;;;;;0.30;0.30;;;;;;;15.90;49.47;99594.47;5055194;28;20302;-73
2023/09/08 09:45:09;;;;;;;0.30;0.30;;;;;;;15.76;50.28;99591.75;5052726;28;20084;-71
2023/09/08 09:47:36;;;;;;;0.25;0.25;;;;;;;15.44;51.66;99602.75;5040199;28;20052;-71
2023/09/08 09:50:02;;;;;;;0.30;0.30;;;;;;;15.41;52.38;99600.63;5052283;28;20126;-70
2023/09/08 09:52:31;;;;;;;0.22;0.22;;;;;;;15.39;52.81;99600.13;5052512;28;20552;-73
2023/09/08 09:54:59;;;;;;;0.20;0.20;;;;;;;15.48;52.47;99602.94;5052333;28;20071;-73
2023/09/08 09:57:26;;;;;;;0.20;0.20;;;;;;;15.45;52.84;99596.94;5057360;28;20623;-73
2023/09/08 09:59:54;;;;;;;0.30;0.30;;;;;;;15.42;52.67;99586.50;5054042;28;20500;-73
2023/09/08 10:02:22;;;;;;;0.20;0.20;;;;;;;15.42;52.78;99597.53;5054784;28;20135;-72
2023/09/08 10:04:50;;;;;;;0.45;0.30;;;;;;;15.32;52.88;99578.50;5056229;28;20051;-72
2023/09/08 10:07:16;;;;;;;;;;;;;;;15.17;52.92;99577.75;5053553;28;20041;-72
2023/09/08 10:09:42;;;;;;;0.20;0.20;;;;;;;15.02;53.64;99578.91;5054932;28;19946;-72
2023/09/08 10:12:12;;;;;;;0.20;0.20;;;;;;;14.75;54.79;99577.03;5064264;28;20060;-73
2023/09/08 10:14:41;;;;;;;0.20;0.20;;;;;;;14.62;55.48;99573.16;5032105;28;20045;-72
2023/09/08 10:17:12;;;;;;;0.22;0.22;;;;;;;14.64;55.66;99576.41;5062600;28;20049;-72
2023/09/08 10:19:41;;;;;;;0.20;0.20;;;;;;;14.81;54.92;99586.00;5025542;28;20045;-71
2023/09/08 10:22:15;;;;;;;0.43;0.30;;;;;;;14.89;54.07;99569.56;5029360;28;20049;-72
2023/09/08 10:24:46;;;;;;;0.20;0.20;;;;;;;15.13;54.19;99597.94;5032262;28;20051;-72
2023/09/08 10:27:12;;;;;;;0.20;0.20;;;;;;;15.16;54.23;99614.69;5054685;28;20066;-72
2023/09/08 10:29:39;;;;;;;0.20;0.20;;;;;;;15.16;54.54;99608.34;5063674;28;20389;-72
2023/09/08 10:32:08;;;;;;;0.70;0.30;;;;;;;14.97;54.33;99611.22;5048604;28;20074;-73
2023/09/08 10:34:37;;;;;;;0.30;0.30;;;;;;;14.65;55.25;99604.72;5065336;28;20052;-72
2023/09/08 10:37:18;;;;;;;0.30;0.30;;;;;;;14.55;56.70;99614.84;5065698;28;20045;-73
2023/09/08 10:39:45;;;;;;;0.20;0.20;;;;;;;14.78;56.23;99617.69;5060277;28;20516;-72
2023/09/08 10:42:23;;;;;;;0.30;0.30;;;;;;;15.15;55.68;99606.72;5031291;28;20048;-73
2023/09/08 10:44:57;;;;;;;0.30;0.30;;;;;;;15.56;54.86;99603.00;5047060;28;20075;-73
2023/09/08 10:47:25;;;;;;;0.40;0.40;;;;;;;15.83;54.57;99605.91;5055940;28;20048;-73
2023/09/08 10:49:53;;;;;;;0.30;0.30;;;;;;;16.34;53.23;99598.25;5065644;28;20051;-73
2023/09/08 10:52:24;;;;;;;0.30;0.30;;;;;;;16.72;52.19;99603.25;5044887;28;20060;-72
2023/09/08 10:54:53;;;;;;;0.40;0.40;;;;;;;16.93;51.95;99599.84;5064152;28;20094;-73
2023/09/08 10:57:22;;;;;;;0.30;0.30;;;;;;;17.18;51.48;99604.97;5064540;28;20106;-73
2023/09/08 10:59:53;;;;;;;0.30;0.30;;;;;;;17.31;51.11;99594.91;5049233;28;20052;-72
2023/09/08 11:02:35;;;;;;;0.45;0.45;;;;;;;17.60;50.96;99598.94;5062147;28;20130;-73
2023/09/08 11:05:02;;;;;;;0.80;0.80;;;;;;;18.97;47.93;99606.56;5053235;28;20190;-73
2023/09/08 11:07:35;;;;;;;0.30;0.30;;;;;;;20.87;43.66;99578.66;5059661;28;20041;-73
2023/09/08 11:10:01;;;;;;;0.30;0.30;;;;;;;20.65;44.22;99589.88;5057600;28;20051;-73
2023/09/08 11:12:30;;;;;;;0.20;0.20;;;;;;;19.59;46.72;99606.91;5058786;28;20052;-72
2023/09/08 11:14:57;;;;;;;0.20;0.20;;;;;;;18.24;50.83;99598.13;5051881;28;20044;-72
2023/09/08 11:17:25;;;;;;;0.20;0.20;;;;;;;16.99;54.65;99612.44;5056964;28;20152;-71
2023/09/08 11:19:52;;;;;;;0.30;0.30;;;;;;;15.89;61.57;99626.72;5045651;28;20099;-72
2023/09/08 11:22:18;;;;;;;0.30;0.30;;;;;;;14.66;65.54;99631.13;5059200;28;20064;-71
2023/09/08 11:24:46;;;;;;;0.20;0.20;;;;;;;13.61;71.23;99612.94;5065489;28;20045;-71
2023/09/08 11:27:12;;;;;;;0.20;0.20;;;;;;;12.90;73.70;99632.06;5060099;28;20192;-72
2023/09/08 11:29:42;;;;;;;0.20;0.20;;;;;;;12.65;74.41;99635.97;5057378;28;20136;-72
2023/09/08 11:32:09;;;;;;;0.20;0.20;;;;;;;12.55;73.94;99624.00;5052088;28;20549;-72
2023/09/08 11:34:35;;;;;;;0.20;0.20;;;;;;;12.61;73.03;99619.25;5054919;28;20144;-72